Time;durP1;ratioP1;P1;durP2;ratioP2;P2;SDS_P1;SDS_P2;PMS_P1;PMS_P2;Temp;Humidity;BMP_temperature;BMP_pressure;BME280_temperature;BME280_humidity;BME280_pressure;Samples;Min_cycle;Max_cycle;Signal;HPM_P1;HPM_P2
2022/01/12 00:02:08;;;;;;;67.70;31.50;;;;;;;-4.62;87.59;98312.10;107353;1271;35811;-74
2022/01/12 00:04:40;;;;;;;71.50;32.60;;;;;;;-4.62;87.51;98309.87;107387;1270;45410;-74
2022/01/12 00:07:12;;;;;;;62.00;31.50;;;;;;;-4.61;87.57;98311.17;107455;1270;39774;-74
2022/01/12 00:09:43;;;;;;;61.20;29.00;;;;;;;-4.59;87.58;98314.08;107463;1271;41971;-74
2022/01/12 00:12:14;;;;;;;61.90;28.00;;;;;;;-4.57;87.64;98311.80;107392;1270;43861;-74
2022/01/12 00:14:45;;;;;;;60.70;26.80;;;;;;;-4.57;87.64;98311.09;107444;1271;36195;-74
2022/01/12 00:17:16;;;;;;;56.60;26.50;;;;;;;-4.56;87.60;98318.05;107491;1270;39516;-74
2022/01/12 00:19:47;;;;;;;60.10;25.70;;;;;;;-4.56;87.42;98316.31;107532;1270;33959;-74
2022/01/12 00:22:17;;;;;;;52.60;23.80;;;;;;;-4.55;87.46;98320.45;107476;1270;38078;-74
2022/01/12 00:25:11;;;;;;;48.30;23.70;;;;;;;-4.57;87.28;98318.98;107443;1270;38007;-74
2022/01/12 00:33:20;;;;;;;54.50;24.20;;;;;;;-4.63;87.22;98318.27;107568;1268;42028;-74
2022/01/12 00:35:52;;;;;;;47.60;23.20;;;;;;;-4.59;87.10;98317.85;107540;1271;33756;-73
2022/01/12 00:38:25;;;;;;;46.70;23.00;;;;;;;-4.55;86.99;98314.00;107498;1271;37215;-74
2022/01/12 00:40:57;;;;;;;47.30;22.60;;;;;;;-4.51;86.88;98313.81;107462;1270;33996;-74
2022/01/12 00:43:30;;;;;;;46.00;21.90;;;;;;;-4.47;86.89;98318.16;107619;1268;33949;-74
2022/01/12 00:46:01;;;;;;;43.60;22.30;;;;;;;-4.45;86.85;98320.90;107538;1270;45989;-74
2022/01/12 00:48:36;;;;;;;43.40;20.70;;;;;;;-4.44;86.78;98318.73;107508;1271;34666;-74
2022/01/12 00:51:07;;;;;;;46.70;21.60;;;;;;;-4.48;86.60;98319.95;107536;1268;35509;-74
2022/01/12 00:53:38;;;;;;;38.70;19.90;;;;;;;-4.52;86.48;98319.27;107529;1271;39820;-74
2022/01/12 00:56:09;;;;;;;45.60;21.70;;;;;;;-4.52;86.73;98321.30;107581;1268;42212;-74
2022/01/12 00:58:41;;;;;;;46.00;22.90;;;;;;;-4.52;86.45;98322.18;107514;1268;51012;-74
2022/01/12 01:01:12;;;;;;;51.60;24.90;;;;;;;-4.52;86.56;98314.45;107643;1270;34038;-74
2022/01/12 01:03:43;;;;;;;50.60;25.00;;;;;;;-4.51;86.59;98313.44;107528;1270;39420;-74
2022/01/12 01:06:14;;;;;;;51.90;25.20;;;;;;;-4.51;86.58;98311.40;107595;1268;49054;-74
2022/01/12 01:08:45;;;;;;;47.90;25.10;;;;;;;-4.50;86.56;98315.09;107667;1268;32666;-74
2022/01/12 01:11:16;;;;;;;46.20;21.70;;;;;;;-4.46;86.44;98314.77;107581;1270;40949;-74
2022/01/12 01:13:56;;;;;;;44.90;20.90;;;;;;;-4.46;86.44;98313.95;107646;1268;43735;-74
2022/01/12 01:16:44;;;;;;;48.30;22.80;;;;;;;-4.47;86.51;98313.27;107543;1268;43469;-74
2022/01/12 01:27:43;;;;;;;51.00;25.60;;;;;;;-4.88;86.66;98315.36;107658;1268;33032;-74
2022/01/12 01:30:16;;;;;;;54.70;26.50;;;;;;;-4.84;86.84;98314.09;107590;1268;41708;-74
2022/01/12 01:32:47;;;;;;;50.30;24.60;;;;;;;-4.77;86.76;98314.36;107727;1268;29762;-74
2022/01/12 01:35:18;;;;;;;47.80;22.10;;;;;;;-4.73;87.01;98311.52;107729;1268;32210;-74
2022/01/12 01:37:49;;;;;;;42.80;20.40;;;;;;;-4.66;87.01;98314.21;107636;1268;31187;-73
2022/01/12 01:40:20;;;;;;;50.60;20.90;;;;;;;-4.64;86.85;98309.14;107590;1268;33023;-74
2022/01/12 01:43:08;;;;;;;44.70;19.60;;;;;;;-4.64;86.80;98304.67;107625;1268;30070;-74
2022/01/12 01:54:28;;;;;;;48.40;23.40;;;;;;;-4.68;86.71;98308.36;107502;1271;44598;-75
2022/01/12 01:56:58;;;;;;;45.00;22.30;;;;;;;-4.70;86.56;98307.45;107506;1269;42953;-74
2022/01/12 01:59:29;;;;;;;38.80;18.80;;;;;;;-4.68;86.67;98308.86;107527;1270;43423;-74
2022/01/12 02:02:00;;;;;;;36.90;18.70;;;;;;;-4.66;86.56;98307.13;107538;1270;40959;-74
2022/01/12 02:04:31;;;;;;;35.60;17.40;;;;;;;-4.66;86.48;98311.38;107455;1270;49506;-74
2022/01/12 02:07:04;;;;;;;34.90;18.00;;;;;;;-4.66;86.37;98306.59;107668;1268;38125;-74
2022/01/12 02:09:41;;;;;;;29.70;15.50;;;;;;;-4.68;86.50;98307.44;107579;1268;40982;-74
2022/01/12 02:12:24;;;;;;;30.50;15.90;;;;;;;-4.69;86.41;98307.60;107629;1268;44288;-74
2022/01/12 02:15:01;;;;;;;32.60;15.00;;;;;;;-4.70;86.21;98312.68;107769;1268;32058;-75
2022/01/12 02:17:38;;;;;;;35.10;16.80;;;;;;;-4.70;86.21;98312.68;107644;1267;35379;-74
2022/01/12 02:20:28;;;;;;;32.10;15.30;;;;;;;-4.72;86.21;98312.14;107610;1268;30625;-74
2022/01/12 02:37:15;;;;;;;38.80;17.00;;;;;;;-4.65;85.79;98301.84;107478;1270;42426;-74
2022/01/12 02:39:55;;;;;;;38.40;18.40;;;;;;;-4.63;85.99;98304.94;107568;1270;31836;-74
2022/01/12 02:42:27;;;;;;;32.10;15.80;;;;;;;-4.64;85.72;98307.96;107542;1268;43699;-74
2022/01/12 02:50:47;;;;;;;23.50;12.10;;;;;;;-4.68;85.82;98312.28;107510;1270;42750;-74
2022/01/12 02:56:07;;;;;;;26.90;13.90;;;;;;;-4.70;85.58;98308.15;107549;1268;44091;-74
2022/01/12 02:58:38;;;;;;;28.50;14.20;;;;;;;-4.70;85.42;98307.12;107563;1268;42542;-74
2022/01/12 03:01:44;;;;;;;26.70;15.30;;;;;;;-4.69;85.40;98311.75;107574;1270;31205;-74
2022/01/12 03:04:15;;;;;;;28.60;12.60;;;;;;;-4.69;85.53;98312.43;107560;1270;46910;-74
2022/01/12 03:06:46;;;;;;;28.20;11.40;;;;;;;-4.72;85.32;98309.45;107651;1270;34579;-74
2022/01/12 03:09:16;;;;;;;22.00;10.20;;;;;;;-4.76;85.14;98309.63;107586;1270;49899;-74
2022/01/12 03:11:47;;;;;;;19.70;9.40;;;;;;;-4.78;84.88;98307.15;107664;1268;42390;-74
2022/01/12 03:14:18;;;;;;;24.90;11.10;;;;;;;-4.78;84.85;98311.66;107558;1268;44509;-74
2022/01/12 03:16:52;;;;;;;22.90;10.70;;;;;;;-4.79;84.96;98311.73;107574;1268;43392;-75
2022/01/12 03:19:22;;;;;;;23.60;12.10;;;;;;;-4.81;84.75;98309.16;107464;1268;50785;-74
2022/01/12 03:21:53;;;;;;;21.30;10.70;;;;;;;-4.83;84.72;98309.20;107576;1268;41911;-75
2022/01/12 03:24:24;;;;;;;17.10;9.80;;;;;;;-4.85;84.87;98311.46;107573;1270;40281;-74
2022/01/12 03:26:55;;;;;;;21.20;9.00;;;;;;;-4.88;84.73;98311.82;107470;1270;35222;-74
2022/01/12 03:29:25;;;;;;;18.30;8.70;;;;;;;-4.86;84.64;98315.85;107596;1268;36758;-75
2022/01/12 03:31:57;;;;;;;17.30;7.80;;;;;;;-4.86;84.38;98317.70;107569;1268;37561;-74
2022/01/12 03:34:31;;;;;;;14.80;7.80;;;;;;;-4.86;83.92;98318.95;107605;1268;38220;-75
2022/01/12 03:39:55;;;;;;;15.50;8.10;;;;;;;-5.01;83.14;98313.91;107566;1268;42680;-74
2022/01/12 03:42:26;;;;;;;16.60;8.20;;;;;;;-5.02;82.99;98315.24;107566;1268;47327;-74
2022/01/12 03:44:56;;;;;;;15.50;7.40;;;;;;;-4.97;83.22;98314.58;107621;1268;43223;-75
2022/01/12 03:47:27;;;;;;;17.40;9.40;;;;;;;-4.92;83.50;98317.06;107570;1268;40486;-74
2022/01/12 03:49:58;;;;;;;18.80;7.90;;;;;;;-4.87;83.59;98310.79;107575;1268;47198;-74
2022/01/12 03:52:29;;;;;;;17.00;8.10;;;;;;;-4.84;83.76;98312.16;107579;1268;47705;-74
2022/01/12 03:55:00;;;;;;;19.20;8.60;;;;;;;-4.80;83.75;98313.16;107549;1268;37656;-74
2022/01/12 03:57:30;;;;;;;20.30;9.90;;;;;;;-4.74;83.70;98309.78;107634;1270;30781;-74
2022/01/12 04:00:01;;;;;;;21.40;10.70;;;;;;;-4.73;83.70;98302.78;107709;1270;39560;-74
2022/01/12 04:02:33;;;;;;;26.40;11.10;;;;;;;-4.73;83.67;98301.61;107655;1270;33815;-74
2022/01/12 04:05:11;;;;;;;23.10;10.10;;;;;;;-4.75;83.69;98302.08;107627;1270;37361;-74
2022/01/12 04:10:31;;;;;;;22.60;11.40;;;;;;;-4.87;83.24;98302.32;107649;1268;47068;-74
2022/01/12 04:13:02;;;;;;;20.50;10.10;;;;;;;-4.90;83.07;98298.95;107676;1268;41589;-74
2022/01/12 04:15:33;;;;;;;22.30;10.40;;;;;;;-4.89;82.99;98297.67;107751;1268;31285;-74
2022/01/12 04:18:04;;;;;;;18.60;10.50;;;;;;;-4.84;83.32;98297.02;107732;1268;38749;-74
2022/01/12 04:20:38;;;;;;;23.70;11.70;;;;;;;-4.79;83.24;98297.23;107723;1268;36481;-74
2022/01/12 04:23:18;;;;;;;19.10;9.50;;;;;;;-4.75;83.23;98298.63;107646;1270;44270;-74
2022/01/12 04:25:51;;;;;;;20.00;10.40;;;;;;;-4.73;83.27;98296.02;107744;1267;35774;-74
2022/01/12 04:28:23;;;;;;;21.60;10.10;;;;;;;-4.76;83.21;98297.54;107709;1268;42921;-74
2022/01/12 04:30:55;;;;;;;21.20;9.80;;;;;;;-4.85;82.71;98293.62;107788;1268;33344;-74
2022/01/12 04:33:26;;;;;;;23.90;10.40;;;;;;;-4.87;82.76;98299.05;107629;1270;46798;-74
2022/01/12 04:35:57;;;;;;;20.80;10.40;;;;;;;-4.90;82.68;98299.12;107558;1270;41993;-74
2022/01/12 04:38:33;;;;;;;21.80;11.40;;;;;;;-4.93;82.82;98300.40;107722;1270;45565;-74
2022/01/12 04:41:06;;;;;;;23.90;12.40;;;;;;;-4.94;82.78;98303.65;107622;1270;44377;-74
2022/01/12 04:43:38;;;;;;;21.80;11.50;;;;;;;-4.94;82.84;98309.13;107641;1268;40816;-74
2022/01/12 04:46:22;;;;;;;22.40;11.40;;;;;;;-4.96;82.67;98302.40;107711;1270;45178;-74
2022/01/12 04:49:07;;;;;;;24.00;11.90;;;;;;;-5.01;82.54;98299.95;107747;1268;31190;-74
2022/01/12 04:51:39;;;;;;;22.70;11.40;;;;;;;-5.07;82.56;98306.89;107680;1270;36938;-74
2022/01/12 04:54:10;;;;;;;22.30;11.50;;;;;;;-5.11;82.51;98308.29;107651;1268;34811;-74
2022/01/12 04:56:40;;;;;;;24.30;11.20;;;;;;;-5.10;82.80;98313.88;107728;1268;33961;-74
2022/01/12 04:59:11;;;;;;;20.10;12.00;;;;;;;-5.07;82.95;98310.30;107735;1268;33512;-74
2022/01/12 05:01:51;;;;;;;22.40;11.60;;;;;;;-5.11;82.75;98316.89;107711;1267;45472;-74
2022/01/12 05:12:53;;;;;;;24.90;12.20;;;;;;;-5.24;82.78;98321.64;107756;1268;36700;-74
2022/01/12 05:15:31;;;;;;;23.70;11.60;;;;;;;-5.28;82.73;98329.16;107691;1270;38815;-74
2022/01/12 05:18:02;;;;;;;18.90;10.40;;;;;;;-5.31;82.81;98332.67;107638;1268;34453;-74
2022/01/12 05:20:34;;;;;;;21.80;10.40;;;;;;;-5.34;82.82;98333.30;107704;1270;40816;-74
2022/01/12 05:23:05;;;;;;;22.80;10.40;;;;;;;-5.31;82.95;98331.95;107789;1268;30669;-74
2022/01/12 05:25:35;;;;;;;20.80;10.40;;;;;;;-5.28;83.08;98339.23;107626;1268;42225;-74
2022/01/12 05:28:07;;;;;;;20.60;11.10;;;;;;;-5.27;82.69;98333.52;107717;1268;31437;-74
2022/01/12 05:30:37;;;;;;;16.70;9.70;;;;;;;-5.31;82.66;98333.49;107727;1268;40670;-74
2022/01/12 05:33:09;;;;;;;17.20;9.60;;;;;;;-5.31;82.41;98330.61;107753;1268;33069;-74
2022/01/12 05:35:42;;;;;;;17.40;8.80;;;;;;;-5.31;82.59;98335.23;107712;1268;37481;-74
2022/01/12 05:38:15;;;;;;;19.70;10.30;;;;;;;-5.29;82.70;98339.70;107719;1268;41060;-74
2022/01/12 05:40:49;;;;;;;18.40;8.60;;;;;;;-5.28;82.76;98339.13;107718;1271;50530;-74
2022/01/12 05:43:24;;;;;;;20.20;9.10;;;;;;;-5.27;82.74;98342.25;107802;1268;42340;-74
2022/01/12 05:45:57;;;;;;;16.40;10.00;;;;;;;-5.26;82.63;98335.66;107715;1268;31440;-74
2022/01/12 05:51:24;;;;;;;19.10;10.40;;;;;;;-5.25;82.70;98338.13;107524;1268;38039;-74
2022/01/12 05:53:56;;;;;;;19.30;9.50;;;;;;;-5.26;82.77;98342.05;107727;1268;39316;-74
2022/01/12 05:56:27;;;;;;;21.80;10.10;;;;;;;-5.23;82.89;98342.64;107728;1268;30530;-74
2022/01/12 05:58:58;;;;;;;18.60;9.10;;;;;;;-5.22;82.77;98344.93;107625;1268;42704;-74
2022/01/12 06:01:28;;;;;;;18.40;9.20;;;;;;;-5.23;82.62;98351.73;107769;1268;39882;-74
2022/01/12 06:03:59;;;;;;;16.90;8.80;;;;;;;-5.24;82.51;98356.64;107689;1269;47490;-74
2022/01/12 06:06:30;;;;;;;18.80;9.90;;;;;;;-5.27;82.50;98360.86;107659;1269;42916;-74
2022/01/12 06:09:01;;;;;;;17.10;8.90;;;;;;;-5.28;82.41;98366.63;107704;1268;30514;-74
2022/01/12 06:11:32;;;;;;;20.00;10.20;;;;;;;-5.26;82.42;98363.04;107584;1270;31340;-75
2022/01/12 06:14:03;;;;;;;18.40;9.30;;;;;;;-5.20;82.57;98367.38;107650;1268;43197;-74
2022/01/12 06:16:34;;;;;;;13.60;7.80;;;;;;;-5.15;82.60;98371.16;107704;1268;32100;-74
2022/01/12 06:19:05;;;;;;;16.80;8.50;;;;;;;-5.12;82.30;98378.17;107765;1268;32126;-74
2022/01/12 06:21:36;;;;;;;16.60;8.40;;;;;;;-5.13;82.09;98379.80;107675;1268;38240;-74
2022/01/12 06:24:08;;;;;;;16.00;7.80;;;;;;;-5.13;81.91;98382.06;107713;1268;41210;-74
2022/01/12 06:26:39;;;;;;;15.20;7.10;;;;;;;-5.16;81.32;98381.83;107725;1268;40668;-74
2022/01/12 06:29:26;;;;;;;14.70;7.30;;;;;;;-5.19;81.24;98384.80;107677;1268;41714;-74
2022/01/12 06:31:58;;;;;;;16.50;8.20;;;;;;;-5.21;81.36;98386.52;107711;1268;47415;-74
2022/01/12 06:34:29;;;;;;;11.70;6.40;;;;;;;-5.21;81.25;98391.77;107706;1268;35304;-74
2022/01/12 06:37:01;;;;;;;14.30;7.50;;;;;;;-5.21;81.27;98395.18;107725;1268;43519;-74
2022/01/12 06:39:34;;;;;;;14.10;7.40;;;;;;;-5.19;81.41;98396.58;107746;1268;31735;-74
2022/01/12 06:42:07;;;;;;;15.70;6.90;;;;;;;-5.18;81.08;98397.83;107640;1268;49204;-74
2022/01/12 06:44:38;;;;;;;11.20;6.20;;;;;;;-5.17;80.99;98394.33;107643;1270;42924;-74
2022/01/12 06:47:09;;;;;;;14.50;7.00;;;;;;;-5.18;81.12;98394.08;107751;1268;30844;-74
2022/01/12 06:49:40;;;;;;;13.50;6.70;;;;;;;-5.20;81.01;98392.33;107705;1268;30696;-74
2022/01/12 06:52:13;;;;;;;10.90;6.50;;;;;;;-5.18;81.02;98390.64;107681;1268;32812;-74
2022/01/12 06:54:44;;;;;;;14.20;6.70;;;;;;;-5.17;81.13;98388.77;107703;1270;35239;-74
2022/01/12 06:57:16;;;;;;;14.10;7.10;;;;;;;-5.12;81.15;98390.90;107737;1268;46190;-74
2022/01/12 06:59:47;;;;;;;11.70;6.10;;;;;;;-5.07;81.14;98391.98;107806;1268;35093;-73
2022/01/12 07:02:17;;;;;;;15.30;7.20;;;;;;;-5.03;81.20;98391.49;107761;1268;41199;-74
2022/01/12 07:04:51;;;;;;;14.80;7.40;;;;;;;-5.00;81.03;98395.08;107775;1268;34541;-74
2022/01/12 07:07:24;;;;;;;13.90;7.00;;;;;;;-4.98;81.14;98398.61;107664;1268;33309;-74
2022/01/12 07:09:55;;;;;;;12.30;6.60;;;;;;;-5.01;80.87;98399.83;107628;1268;34127;-75
2022/01/12 07:12:25;;;;;;;12.20;6.40;;;;;;;-5.06;80.50;98400.04;107666;1270;45626;-74
2022/01/12 07:14:56;;;;;;;18.10;9.40;;;;;;;-5.08;80.51;98404.70;107661;1268;43035;-73
2022/01/12 07:17:27;;;;;;;13.00;7.70;;;;;;;-5.09;80.32;98413.54;107603;1270;44341;-73
2022/01/12 07:19:58;;;;;;;11.40;6.40;;;;;;;-5.09;80.32;98415.64;107670;1270;36454;-74
2022/01/12 07:22:29;;;;;;;9.40;5.20;;;;;;;-5.15;80.02;98418.10;107695;1268;42104;-74
2022/01/12 07:25:00;;;;;;;9.90;6.40;;;;;;;-5.18;79.91;98416.66;107709;1268;36327;-73
2022/01/12 07:27:31;;;;;;;11.00;5.90;;;;;;;-5.18;79.92;98418.33;107495;1268;194478;-74
2022/01/12 07:30:03;;;;;;;9.70;4.70;;;;;;;-5.15;79.95;98422.05;107733;1270;28403;-74
2022/01/12 07:32:34;;;;;;;10.70;5.20;;;;;;;-5.12;79.94;98418.99;107707;1270;31493;-74
2022/01/12 07:35:06;;;;;;;12.40;5.30;;;;;;;-5.11;79.92;98425.83;107692;1268;39689;-74
2022/01/12 07:37:38;;;;;;;10.10;5.60;;;;;;;-5.10;79.78;98426.94;107726;1268;46316;-74
2022/01/12 07:40:11;;;;;;;10.40;5.10;;;;;;;-5.08;79.81;98427.63;107707;1270;35536;-74
2022/01/12 07:42:43;;;;;;;12.90;5.10;;;;;;;-5.05;79.84;98431.87;107761;1268;41960;-74
2022/01/12 07:45:14;;;;;;;12.00;5.10;;;;;;;-5.03;79.64;98430.34;107706;1268;35898;-74
2022/01/12 07:47:47;;;;;;;9.50;4.90;;;;;;;-5.04;79.68;98430.20;107734;1268;44425;-74
2022/01/12 07:50:19;;;;;;;11.20;5.50;;;;;;;-5.03;79.53;98430.25;107770;1268;30404;-74
2022/01/12 07:52:53;;;;;;;9.50;5.50;;;;;;;-5.01;79.57;98429.77;107689;1268;36836;-74
2022/01/12 07:55:25;;;;;;;8.20;4.50;;;;;;;-5.02;79.33;98430.39;107685;1268;46101;-74
2022/01/12 07:57:57;;;;;;;11.80;5.80;;;;;;;-5.08;79.22;98430.21;107708;1268;38094;-74
2022/01/12 08:00:28;;;;;;;8.80;4.70;;;;;;;-5.13;79.32;98434.06;107610;1270;50524;-74
2022/01/12 08:02:59;;;;;;;8.60;4.90;;;;;;;-5.16;79.26;98437.34;107638;1270;48195;-74
2022/01/12 08:05:30;;;;;;;10.70;5.70;;;;;;;-5.17;79.30;98437.75;107625;1270;44815;-73
2022/01/12 08:08:01;;;;;;;11.30;4.70;;;;;;;-5.17;79.27;98435.83;107579;1268;37266;-73
2022/01/12 08:10:32;;;;;;;11.40;4.80;;;;;;;-5.16;79.25;98435.41;107695;1268;35946;-73
2022/01/12 08:13:03;;;;;;;9.70;5.30;;;;;;;-5.19;78.84;98435.66;107726;1268;38782;-74
2022/01/12 08:15:35;;;;;;;11.70;6.00;;;;;;;-5.17;78.97;98434.98;107631;1268;50697;-74
2022/01/12 08:18:06;;;;;;;8.50;5.00;;;;;;;-5.14;78.77;98439.52;107684;1268;45411;-73
2022/01/12 08:20:37;;;;;;;9.10;5.30;;;;;;;-5.13;78.83;98440.30;107632;1268;36638;-74
2022/01/12 08:23:08;;;;;;;7.90;4.80;;;;;;;-5.12;78.93;98440.20;107653;1270;41079;-74
2022/01/12 08:25:40;;;;;;;8.50;4.90;;;;;;;-5.13;78.67;98442.23;107723;1268;39829;-73
2022/01/12 08:28:11;;;;;;;11.50;5.80;;;;;;;-5.13;78.73;98449.23;107776;1268;31684;-73
2022/01/12 08:30:42;;;;;;;14.50;5.70;;;;;;;-5.12;78.44;98450.58;107688;1268;46171;-73
2022/01/12 08:33:15;;;;;;;11.90;5.50;;;;;;;-5.12;78.41;98456.91;107685;1270;42339;-73
2022/01/12 08:35:46;;;;;;;9.20;5.70;;;;;;;-5.11;78.47;98457.04;107739;1270;49256;-73
2022/01/12 08:38:17;;;;;;;9.60;6.10;;;;;;;-5.14;78.17;98462.79;107702;1270;44280;-74
2022/01/12 08:40:50;;;;;;;8.50;5.40;;;;;;;-5.10;78.40;98454.64;107742;1268;41284;-73
2022/01/12 08:43:22;;;;;;;11.20;5.70;;;;;;;-5.05;78.31;98447.73;107725;1268;31719;-74
2022/01/12 08:45:54;;;;;;;9.10;4.90;;;;;;;-5.05;78.10;98450.69;107731;1268;32246;-74
2022/01/12 08:48:25;;;;;;;14.40;5.90;;;;;;;-5.19;77.73;98455.80;107727;1268;34497;-74
2022/01/12 08:50:55;;;;;;;12.40;6.40;;;;;;;-5.19;77.95;98465.01;107736;1268;34282;-74
2022/01/12 08:53:27;;;;;;;11.60;5.60;;;;;;;-5.15;78.23;98472.72;107697;1271;35292;-73
2022/01/12 08:55:58;;;;;;;14.50;7.40;;;;;;;-5.19;77.97;98473.75;107701;1268;43389;-74
2022/01/12 08:58:29;;;;;;;13.40;6.50;;;;;;;-5.36;77.58;98466.25;107631;1268;46503;-74
2022/01/12 09:01:03;;;;;;;12.70;7.00;;;;;;;-5.50;77.56;98459.54;107639;1271;35181;-74
2022/01/12 09:03:34;;;;;;;13.20;7.10;;;;;;;-5.58;77.66;98463.02;107699;1269;44641;-73
2022/01/12 09:06:06;;;;;;;12.30;6.70;;;;;;;-5.61;77.75;98466.73;107648;1271;53385;-73
2022/01/12 09:08:40;;;;;;;13.10;7.20;;;;;;;-5.65;77.75;98465.65;107605;1271;43695;-73
2022/01/12 09:11:18;;;;;;;16.70;7.60;;;;;;;-5.68;77.82;98458.36;107741;1270;32489;-73
2022/01/12 09:13:49;;;;;;;13.50;6.80;;;;;;;-5.74;78.05;98462.10;107665;1270;40880;-74
2022/01/12 09:16:21;;;;;;;14.00;6.60;;;;;;;-5.76;77.82;98452.80;107659;1270;33347;-74
2022/01/12 09:18:52;;;;;;;12.60;5.50;;;;;;;-5.73;78.06;98450.66;107653;1270;44745;-74
2022/01/12 09:21:23;;;;;;;11.20;6.10;;;;;;;-5.76;77.89;98457.47;107650;1269;42641;-74
2022/01/12 09:23:54;;;;;;;10.10;5.80;;;;;;;-5.76;77.86;98458.04;107695;1270;37735;-73
2022/01/12 09:26:25;;;;;;;15.00;8.10;;;;;;;-5.78;77.86;98462.31;107660;1268;35831;-73
2022/01/12 09:28:56;;;;;;;13.10;7.40;;;;;;;-5.77;77.99;98457.42;107729;1270;36787;-74
2022/01/12 09:31:27;;;;;;;17.90;6.90;;;;;;;-5.73;78.02;98458.30;107747;1268;34610;-74
2022/01/12 09:33:58;;;;;;;13.90;7.60;;;;;;;-5.71;78.31;98453.20;107597;1269;45219;-74
2022/01/12 09:36:29;;;;;;;11.90;6.60;;;;;;;-5.64;78.30;98449.41;107647;1268;40510;-74
2022/01/12 09:39:00;;;;;;;14.30;6.90;;;;;;;-5.60;77.97;98448.91;107627;1270;47963;-74
2022/01/12 09:41:31;;;;;;;15.20;6.80;;;;;;;-5.61;77.82;98450.88;107639;1268;46880;-74
2022/01/12 09:44:02;;;;;;;12.70;6.80;;;;;;;-5.59;77.88;98445.65;107691;1271;45017;-73
2022/01/12 09:46:33;;;;;;;12.80;6.40;;;;;;;-5.51;78.12;98438.43;107710;1268;41061;-74
2022/01/12 09:49:06;;;;;;;14.80;7.40;;;;;;;-5.44;77.85;98431.67;107722;1268;41713;-74
2022/01/12 09:51:37;;;;;;;15.90;7.70;;;;;;;-5.42;77.63;98431.41;107670;1269;44988;-73
2022/01/12 09:54:10;;;;;;;13.60;6.90;;;;;;;-5.47;77.21;98437.61;107631;1271;42245;-74
2022/01/12 09:56:41;;;;;;;15.90;8.60;;;;;;;-5.43;77.35;98425.70;107733;1270;43960;-74
2022/01/12 09:59:12;;;;;;;12.90;7.20;;;;;;;-5.38;77.79;98427.24;107653;1268;41179;-74
2022/01/12 10:01:45;;;;;;;17.70;8.00;;;;;;;-5.43;77.34;98428.99;107734;1268;35509;-74
2022/01/12 10:04:18;;;;;;;15.10;9.00;;;;;;;-5.44;77.49;98432.12;107784;1268;40441;-73
2022/01/12 10:06:52;;;;;;;14.70;6.90;;;;;;;-5.46;77.59;98430.43;107715;1268;37104;-74
2022/01/12 10:09:31;;;;;;;20.80;7.70;;;;;;;-5.51;77.26;98425.13;107670;1269;32570;-74
2022/01/12 10:12:05;;;;;;;23.30;11.40;;;;;;;-5.68;76.92;98421.44;107704;1268;38227;-74
2022/01/12 10:14:45;;;;;;;17.40;9.80;;;;;;;-5.70;77.47;98422.71;107730;1268;41708;-73
2022/01/12 10:17:15;;;;;;;;;;;;;;;-5.62;77.67;98419.13;107784;1268;47154;-73
2022/01/12 10:19:47;;;;;;;18.00;9.40;;;;;;;-5.51;77.87;98416.18;107764;1268;37423;-74
2022/01/12 10:22:18;;;;;;;15.20;9.00;;;;;;;-5.38;78.03;98408.89;107714;1269;44421;-74
2022/01/12 10:24:49;;;;;;;13.80;7.50;;;;;;;-5.25;77.90;98398.77;107780;1268;41915;-74
2022/01/12 10:27:21;;;;;;;18.60;9.30;;;;;;;-5.25;77.36;98392.40;107619;1270;43924;-74
2022/01/12 10:30:03;;;;;;;12.40;6.90;;;;;;;-5.35;77.22;98391.94;107667;1268;39935;-73
2022/01/12 10:32:34;;;;;;;18.10;9.70;;;;;;;-5.49;76.57;98392.77;107715;1268;42129;-74
2022/01/12 10:35:06;;;;;;;15.60;9.00;;;;;;;-5.58;76.93;98394.11;107555;1270;45306;-73
2022/01/12 10:37:37;;;;;;;15.70;9.30;;;;;;;-5.57;77.13;98391.94;107715;1271;31204;-73
2022/01/12 10:40:11;;;;;;;16.30;8.50;;;;;;;-5.65;76.93;98385.45;107645;1268;35950;-74
2022/01/12 10:42:44;;;;;;;14.30;6.80;;;;;;;-5.71;76.88;98385.38;107750;1269;35665;-73
2022/01/12 10:45:15;;;;;;;12.00;6.30;;;;;;;-5.74;76.91;98383.73;107778;1271;34419;-74
2022/01/12 10:47:47;;;;;;;18.60;9.80;;;;;;;-5.77;76.79;98382.62;107801;1270;32858;-73
2022/01/12 10:50:18;;;;;;;20.20;10.60;;;;;;;-5.78;76.83;98379.77;107780;1268;38148;-73
2022/01/12 10:52:53;;;;;;;18.80;9.90;;;;;;;-5.70;77.05;98379.48;107730;1268;33975;-74
2022/01/12 10:55:24;;;;;;;20.00;9.40;;;;;;;-5.64;77.38;98380.01;107757;1268;31470;-74
2022/01/12 10:57:58;;;;;;;24.00;11.00;;;;;;;-5.61;77.36;98374.42;107765;1268;40072;-74
2022/01/12 11:00:30;;;;;;;16.60;7.90;;;;;;;-5.55;77.46;98376.08;107714;1268;41090;-74
2022/01/12 11:03:02;;;;;;;20.20;10.50;;;;;;;-5.58;77.21;98381.72;107691;1268;43188;-73
2022/01/12 11:05:33;;;;;;;18.50;9.80;;;;;;;-5.64;77.30;98386.48;107660;1270;33671;-73
2022/01/12 11:08:04;;;;;;;23.00;13.10;;;;;;;-5.68;77.06;98384.40;107572;1270;41668;-73
2022/01/12 11:10:35;;;;;;;23.40;11.10;;;;;;;-5.67;77.19;98385.92;107672;1268;33773;-73
2022/01/12 11:13:09;;;;;;;21.90;10.60;;;;;;;-5.68;77.21;98392.37;107688;1270;32794;-73
2022/01/12 11:15:42;;;;;;;14.60;7.70;;;;;;;-5.70;77.39;98398.41;107615;1269;51716;-73
2022/01/12 11:18:14;;;;;;;16.00;9.40;;;;;;;-5.78;77.34;98395.60;107633;1269;42403;-73
2022/01/12 11:20:47;;;;;;;11.80;6.00;;;;;;;-5.78;77.58;98393.96;107755;1270;45507;-73
2022/01/12 11:23:20;;;;;;;26.00;12.50;;;;;;;-5.81;77.31;98386.45;107814;1271;30171;-73
2022/01/12 11:25:52;;;;;;;10.20;6.40;;;;;;;-5.90;77.37;98377.24;107715;1268;51707;-74
2022/01/12 11:28:25;;;;;;;22.10;10.10;;;;;;;-5.91;77.52;98379.95;107708;1269;32351;-74
2022/01/12 11:31:04;;;;;;;20.90;9.30;;;;;;;-5.89;77.50;98383.67;107641;1270;42808;-73
2022/01/12 11:33:42;;;;;;;19.60;10.00;;;;;;;-5.86;77.52;98388.25;107646;1270;49792;-73
2022/01/12 11:36:24;;;;;;;15.30;8.20;;;;;;;-5.86;77.41;98380.04;107707;1270;42724;-73
2022/01/12 11:39:05;;;;;;;12.60;6.60;;;;;;;-5.85;77.82;98367.31;107618;1270;42082;-74
2022/01/12 11:41:37;;;;;;;16.10;9.40;;;;;;;-5.80;77.64;98371.34;107700;1270;45407;-73
2022/01/12 11:44:12;;;;;;;12.90;5.60;;;;;;;-5.83;77.47;98373.16;107729;1271;40397;-73
2022/01/12 11:46:49;;;;;;;16.80;9.00;;;;;;;-5.80;77.46;98385.70;107741;1268;34310;-73
2022/01/12 11:49:31;;;;;;;20.00;9.50;;;;;;;-5.76;77.47;98387.52;107669;1268;47522;-73
2022/01/12 11:52:14;;;;;;;18.40;9.60;;;;;;;-5.67;77.67;98385.05;107698;1268;47618;-73
2022/01/12 11:54:47;;;;;;;16.10;8.50;;;;;;;-5.60;77.67;98377.45;107770;1268;44452;-73
2022/01/12 11:57:19;;;;;;;15.60;9.30;;;;;;;-5.56;77.54;98372.61;107728;1268;47934;-73
2022/01/12 11:59:56;;;;;;;22.30;10.60;;;;;;;-5.56;77.46;98360.12;107699;1270;35354;-73
2022/01/12 12:02:37;;;;;;;21.00;10.20;;;;;;;-5.60;77.36;98368.09;107706;1270;34817;-74
2022/01/12 12:05:12;;;;;;;16.80;10.90;;;;;;;-5.56;77.48;98377.23;107633;1270;45389;-73
2022/01/12 12:07:48;;;;;;;18.70;9.60;;;;;;;-5.52;77.32;98385.25;107656;1268;46059;-73
2022/01/12 12:10:22;;;;;;;13.10;8.20;;;;;;;-5.46;77.43;98385.25;107770;1271;35101;-74
2022/01/12 12:12:55;;;;;;;16.70;9.30;;;;;;;-5.36;77.38;98381.48;107765;1268;46257;-74
2022/01/12 12:15:28;;;;;;;15.30;8.20;;;;;;;-5.25;77.48;98380.66;107706;1269;57263;-73
2022/01/12 12:18:03;;;;;;;18.30;10.60;;;;;;;-5.20;77.27;98371.46;107704;1268;34439;-74
2022/01/12 12:20:36;;;;;;;14.20;7.70;;;;;;;-5.17;77.40;98368.40;107672;1270;37808;-73
2022/01/12 12:23:07;;;;;;;18.60;9.90;;;;;;;-5.19;77.00;98367.56;107697;1269;39998;-73
2022/01/12 12:25:39;;;;;;;17.80;9.00;;;;;;;-5.25;76.80;98373.10;107711;1268;38619;-73
2022/01/12 12:28:13;;;;;;;21.40;10.00;;;;;;;-5.31;76.91;98367.86;107609;1270;48968;-73
2022/01/12 12:30:44;;;;;;;18.20;10.00;;;;;;;-5.33;76.84;98371.27;107712;1269;42665;-73
2022/01/12 12:33:16;;;;;;;14.70;8.40;;;;;;;-5.28;77.23;98363.26;107811;1268;35978;-73
2022/01/12 12:35:47;;;;;;;17.40;8.70;;;;;;;-5.19;77.60;98358.64;107689;1270;36380;-73
2022/01/12 12:38:20;;;;;;;16.70;8.80;;;;;;;-5.11;77.39;98356.73;107739;1268;44987;-73
2022/01/12 12:40:55;;;;;;;19.00;8.70;;;;;;;-5.09;77.18;98369.75;107691;1268;39245;-74
2022/01/12 12:43:34;;;;;;;19.10;10.10;;;;;;;-5.16;76.88;98377.80;107671;1270;45297;-73